Tiempo atmosférico en la estación meteorológica de Lugo, Lugo (442 m.)



Fecha
DESCASC
Temp. máxima en grados centígrados (hora)
DESCASC
Temp. mínima en grados centígrados (hora)
DESCASC
Temp. media en grados centígrados
DESCASC
Racha de viento máxima en m/sg (hora)
DESCASC
Velocidad máxima media en intervalos de 10 minutos(hora)
DESCASC
Precipitaciones diarias en mm
DESCASC
Precipitaciones de 00:00 a 06:00 en mm
DESCASC
Precipitaciones de 06:00 a 12:00 en mm
DESCASC
Precipitaciones de 12:00 a 18:00 en mm
DESCASC
Precipitaciones de 18:00 a 24:00 en mm
DESCASC
21-02-2019 17.5 (15:20) 2.4 (08:20) 10 8.06 (13:50) 2.78 (14:10) 0 0 0 0 0
20-02-2019 17.7 (17:40) -1.4 (06:40) 8.2 5.83 (14:50) 2.78 (14:40) 0.2 0 0.2 0 0
19-02-2019 13.9 (17:40) 1.4 (09:40) 7.6 3.61 (16:10) 1.67 (15:00) 0 0 0 0 0
18-02-2019 7.7 (15:20) 3.2 (23:50) 5.4 4.17 (10:30) 1.67 (10:40) 9.2 4 4.2 1 0
17-02-2019 16.2 (13:40) 5.8 (00:00) 11 8.89 (14:00) 4.44 (17:00) 3.4 0 0 0 3.4
16-02-2019 22.9 (17:50) 0.7 (00:00) 11.8 5.28 (17:10) 1.94 (12:10) 0 0 0 0 0
15-02-2019 20.4 (17:00) 0.8 (00:00) 10.6 3.33 (11:50) 1.67 (11:50) 0 0 0 0 0
14-02-2019 21.5 (17:20) -0.9 (-00:0) 10.3 7.78 (17:10) 3.33 (16:00) 0 0 0 0 0
13-02-2019 21.2 (17:50) -0.9 (-00:0) 10.2 3.89 (10:40) 2.22 (10:40) 0 0 0 0 0
12-02-2019 19.1 (18:10) -0.5 (-00:0) 9.3 2.78 (14:40) 1.39 (13:50) 0 0 0 0 0
11-02-2019 13.2 (16:50) 0.3 (00:00) 6.7 5.83 (16:10) 3.06 (18:40) 0 0 0 0 0
10-02-2019 11.1 (12:20) 3 (00:00) 7.1 10.56 (01:00) 3.89 (08:10) 16 3.4 12.6 0 0
09-02-2019 11.7 (12:20) 8.2 (00:00) 9.9 10 (21:10) 3.06 (20:30) 0.6 0 0 0 0.6
08-02-2019 11.4 (13:10) 0.4 (00:00) 5.9 7.78 (15:00) 3.06 (18:20) 0 0 0 0 0
07-02-2019 13.2 (17:00) 4.3 (00:00) 8.8 5.83 (14:40) 2.5 (14:40) 1 0.6 0.4 0 0
06-02-2019 13.9 (15:30) 5.4 (00:00) 9.6 7.22 (15:10) 3.33 (15:10) 0 0 0 0 0
05-02-2019 16 (17:50) 6.7 (00:00) 11.3 3.89 (13:00) 1.94 (13:00) 0 0 0 0 0
04-02-2019 9 (17:10) 0.2 (00:00) 4.6 4.44 (16:10) 2.22 (16:00) 0 0 0 0 0
03-02-2019 8.4 (17:20) -1.3 (-00:0) 3.5 4.44 (02:30) 1.67 (16:40) 0 0 0 0 0
02-02-2019 7.8 (13:40) 0.4 (00:00) 4.1 8.33 (16:40) 3.33 (14:00) 7.2 1.2 4.2 1.2 0.6
01-02-2019 6.4 (00:10) 0.8 (00:00) 3.6 15.56 (04:20) 6.94 (04:20) 20.8 5.2 4.6 8.8 2.2
31-01-2019 12.2 (13:50) 6.2 (00:00) 9.2 14.44 (13:10) 5.83 (16:10) 13 6.6 1.8 3.2 1.4
30-01-2019 11 (23:10) 2.1 (00:00) 6.5 8.61 (16:30) 3.61 (19:10) 10.2 0 0.2 3.2 6.8
29-01-2019 9.6 (12:40) 4.1 (00:00) 6.9 13.89 (12:50) 6.39 (13:00) 6.8 0 4 1.6 1.2
28-01-2019 10.4 (14:10) 5.7 (00:00) 8 8.33 (14:30) 2.78 (13:50) 4.2 1.6 2.6 0 0
27-01-2019 9.4 (16:10) 3.7 (00:00) 6.5 9.17 (15:40) 3.33 (15:40) 3.6 1.4 1.2 1 0
26-01-2019 14.3 (17:50) 1.8 (00:00) 8.1 7.22 (23:20) 3.06 (23:20) 0.2 0 0.2 0 0
25-01-2019 10.6 (17:30) 4.6 (00:00) 7.6 6.11 (18:40) 2.78 (14:30) 0.4 0.2 0.2 0 0
24-01-2019 11.1 (13:00) 8.6 (00:00) 9.9 7.78 (14:50) 3.06 (14:20) 1.2 0.2 0 0.2 0.8

Gráficas

Temp. máximas Temp. mínimas Temp. medias Precipitaciones Rachas de viento máximas Velocidades máximas media en intervalos de 10 minutos

Datos horarios

Fecha y hora oficial Temperatura (ºC) Velocidad del viento (km/h) Dirección del viento Racha (km/h) Dirección de racha Precipitación (mm) Presión (hPa) Tendencia (hPa) Humedad (%)
2019-02-22 23:00:00 11.1 2 Sudeste 9 Sudeste 0 -- -- 51
2019-02-22 22:00:00 11.9 4 Sudeste 8 Sudeste 0 -- -- 50
2019-02-22 21:00:00 13.2 3 Sudeste 9 Sudoeste 0 -- -- 45
2019-02-22 20:00:00 14.6 4 Sur 8 Sur 0 -- -- 40
2019-02-22 19:00:00 16.6 3 Sur 16 Sur 0 -- -- 34
2019-02-22 18:00:00 19.4 5 Sur 20 Sur 0 -- -- 30
2019-02-22 17:00:00 20.4 8 Sur 21 Sudeste 0 -- -- 27
2019-02-22 16:00:00 20.5 6 Sur 24 Sur 0 -- -- 27
2019-02-22 15:00:00 20 6 Sur 22 Sur 0 -- -- 28
2019-02-22 14:00:00 20 8 Sur 25 Sur 0 -- -- 28
2019-02-22 13:00:00 19.5 6 Sur 18 Sur 0 -- -- 35
2019-02-22 12:00:00 17.4 6 Sudeste 14 Sur 0 -- -- 39
2019-02-22 11:00:00 11.8 3 Sudeste 6 Sudeste 0 -- -- 62
2019-02-22 10:00:00 6.8 0 Calma 4 Noroeste 0 -- -- 81
2019-02-22 09:00:00 3.9 0 Calma 6 Noroeste 0 -- -- 89
2019-02-22 08:00:00 3.5 0 Calma 6 Oeste 0 -- -- 89
2019-02-22 07:00:00 4.2 3 Noroeste 4 Noroeste 0 -- -- 85
2019-02-22 06:00:00 6 0 Calma 6 Este 0 -- -- 78
2019-02-22 05:00:00 5.7 0 Calma 4 Este 0 -- -- 82
2019-02-22 04:00:00 5.8 3 Este 4 Este 0 -- -- 81
2019-02-22 03:00:00 7.5 3 Sudeste 9 Sudeste 0 -- -- 74
2019-02-22 02:00:00 8.1 2 Este 6 Sudeste 0 -- -- 71
2019-02-22 01:00:00 8.6 3 Sudeste 9 Este 0 -- -- 69
2019-02-22 00:00:00 9 3 Sudeste 9 Sudeste 0 -- -- 69
2019-02-21 23:00:00 9.8 2 Sudeste 6 Este 0 -- -- 64
2019-02-21 22:00:00 10.9 2 Sudeste 6 Sur 0 -- -- 60
2019-02-21 21:00:00 11.8 2 Sudeste 5 Sur 0 -- -- 56
2019-02-21 20:00:00 12.8 0 Calma 7 Sur 0 -- -- 51
2019-02-21 19:00:00 14.8 2 Sudoeste 19 Sur 0 -- -- 45
2019-02-21 18:00:00 15.8 6 Sur 15 Sur 0 -- -- 43
2019-02-21 17:00:00 17 4 Sur 15 Sur 0 -- -- 43
2019-02-21 16:00:00 16.8 6 Sur 24 Sur 0 -- -- 44
2019-02-21 15:00:00 17.1 6 Sur 27 Sudeste 0 -- -- 45
2019-02-21 14:00:00 17.4 8 Sur 29 Sur 0 -- -- 44
2019-02-21 13:00:00 15.7 5 Sur 26 Sudeste 0 -- -- 52
2019-02-21 12:00:00 14.5 4 Sudeste 10 Sudeste 0 -- -- 56
2019-02-21 11:00:00 11 5 Sudeste 10 Sudeste 0 -- -- 67
2019-02-21 10:00:00 6.1 3 Sudeste 6 Este 0 -- -- 86
2019-02-21 09:00:00 3.1 3 Sudeste 6 Sudeste 0 -- -- 94
2019-02-21 08:00:00 2.5 3 Sudeste 5 Sudeste 0 -- -- 93
2019-02-21 07:00:00 3.1 3 Sudeste 6 Sudeste 0 -- -- 93
2019-02-21 06:00:00 3.4 2 Sudeste 8 Sudeste 0 -- -- 91
2019-02-21 05:00:00 4.3 4 Sudeste 14 Sudeste 0 -- -- 91
2019-02-21 04:00:00 3.3 6 Sudeste 14 Este 0 -- -- 91
2019-02-21 03:00:00 3.8 5 Sudeste 13 Este 0 -- -- 89
2019-02-21 02:00:00 4.5 4 Sudeste 12 Sudeste 0 -- -- 86
2019-02-21 01:00:00 5.3 5 Sudeste 11 Sudeste 0 -- -- 85
2019-02-21 00:00:00 5.7 4 Sudeste 10 Sudeste 0 -- -- 81
2019-02-20 23:00:00 6.4 5 Sudeste 10 Sudeste 0 -- -- 79
2019-02-20 22:00:00 6.9 2 Sudeste 7 Sudeste 0 -- -- 78
2019-02-20 21:00:00 8.6 0 Calma 4 Sudeste 0 -- -- 69
2019-02-20 20:00:00 9.6 0 Calma 5 Sur 0 -- -- 59
2019-02-20 19:00:00 12.4 2 Sur 14 Oeste 0 -- -- 50
2019-02-20 18:00:00 17.1 4 Sudoeste 19 Oeste 0 -- -- 40
2019-02-20 17:00:00 16.4 5 Sur 18 Sur 0 -- -- 44
2019-02-20 16:00:00 14.3 8 Sudeste 16 Sudeste 0 -- -- 52
2019-02-20 15:00:00 13 6 Sur 21 Sudeste 0 -- -- 61
2019-02-20 14:00:00 13 6 Sudeste 13 Sur 0 -- -- 64
2019-02-20 13:00:00 9.6 3 Sudeste 8 Sudeste 0 -- -- 74
2019-02-20 12:00:00 6.4 4 Sudeste 8 Sudeste 0 -- -- 88
2019-02-20 11:00:00 2.8 2 Sudeste 5 Sudeste 0.2 -- -- 95
2019-02-20 10:00:00 1.1 2 Sudeste 6 Este 0 -- -- 98
2019-02-20 09:00:00 -1.1 4 Sudeste 10 Sudeste 0 -- -- 99
2019-02-20 08:00:00 -1.4 6 Sudeste 10 Este 0 -- -- 99
2019-02-20 07:00:00 -1.4 5 Sudeste 10 Sudeste 0 -- -- 99
2019-02-20 06:00:00 -1.2 2 Sudeste 4 Sudeste 0 -- -- 98
2019-02-20 05:00:00 -0.8 0 Calma 4 Sudeste 0 -- -- 98
2019-02-20 04:00:00 -0.4 0 Calma 6 Este 0 -- -- 98
2019-02-20 03:00:00 -0.1 0 Calma 6 Este 0 -- -- 97
2019-02-20 02:00:00 0.5 2 Sudeste 6 Sudeste 0 -- -- 96
2019-02-20 01:00:00 1 2 Sudeste 5 Sudeste 0 -- -- 96
2019-02-20 00:00:00 1.9 0 Calma 6 Sudeste 0 -- -- 95
2019-02-19 23:00:00 3 3 Sudeste 6 Sudeste 0 -- -- 94
2019-02-19 22:00:00 4 2 Sudeste 3 Este 0 -- -- 93
2019-02-19 21:00:00 5.1 0 Calma 6 Sudeste 0 -- -- 89
2019-02-19 20:00:00 7.1 3 Sudeste 6 Sudeste 0 -- -- 82
2019-02-19 19:00:00 9.1 3 Sudeste 8 Sudeste 0 -- -- 71
2019-02-19 18:00:00 13.6 4 Sudeste 12 Este 0 -- -- 54
2019-02-19 17:00:00 12.7 5 Sudeste 13 Sur 0 -- -- 59
2019-02-19 16:00:00 8.6 3 Sudeste 11 Nordeste 0 -- -- 76
2019-02-19 15:00:00 7.1 6 Sudeste 12 Sudeste 0 -- -- 83
2019-02-19 14:00:00 7.6 3 Este 7 Este 0 -- -- 87
2019-02-19 13:00:00 4.6 2 Este 5 Sudeste 0 -- -- 97
2019-02-19 12:00:00 3.3 0 Calma 4 Nordeste 0 -- -- 99
2019-02-19 11:00:00 2.1 0 Calma 8 Sudeste 0 -- -- 99
2019-02-19 10:00:00 1.5 4 Sur 11 Sur 0 -- -- 99
2019-02-19 09:00:00 1.6 3 Sudeste 7 Sudeste 0 -- -- 99
2019-02-19 08:00:00 1.8 0 Calma 7 Sudeste 0 -- -- 99
2019-02-19 07:00:00 2.1 0 Calma 5 Noroeste 0 -- -- 99
2019-02-19 06:00:00 2.6 0 Calma 5 Noroeste 0 -- -- 99
2019-02-19 05:00:00 2.9 2 Noroeste 6 Noroeste 0 -- -- 99
2019-02-19 04:00:00 2.7 0 Calma 6 Noroeste 0 -- -- 99
2019-02-19 03:00:00 3.1 0 Calma 4 Oeste 0 -- -- 98
2019-02-19 02:00:00 3.3 0 Calma 4 Oeste 0 -- -- 98
2019-02-19 01:00:00 3.1 0 Calma 4 Sur 0 -- -- 98
2019-02-19 00:00:00 3.2 0 Calma 4 Noroeste 0 -- -- 97
2019-02-18 23:00:00 3.7 3 Noroeste 6 Noroeste 0 -- -- 96
2019-02-18 22:00:00 3.6 0 Calma 8 Noroeste 0 -- -- 96
2019-02-18 21:00:00 4.6 0 Calma 4 Noroeste 0 -- -- 95
2019-02-18 20:00:00 5.8 2 Noroeste 4 Nordeste 0 -- -- 91
2019-02-18 19:00:00 7.1 2 Nordeste 5 Este 0 -- -- 89
2019-02-18 18:00:00 7.2 3 Nordeste 8 Nordeste 0 -- -- 88
2019-02-18 17:00:00 7.1 3 Este 8 Nordeste 0 -- -- 90
2019-02-18 16:00:00 7.5 3 Nordeste 8 Nordeste 0.2 -- -- 90
2019-02-18 15:00:00 7.3 5 Norte 9 Norte 0.6 -- -- 89
2019-02-18 14:00:00 7 5 Norte 9 Norte 0.2 -- -- 90
2019-02-18 13:00:00 6.8 3 Norte 13 Norte 0 -- -- 92
2019-02-18 12:00:00 6.8 4 Norte 13 Norte 0.2 -- -- 95
2019-02-18 11:00:00 6.5 4 Norte 15 Norte 0.6 -- -- 96
2019-02-18 10:00:00 6 5 Noroeste 13 Noroeste 1 -- -- 97
2019-02-18 09:00:00 5.8 5 Noroeste 15 Noroeste 1.6 -- -- 97
2019-02-18 08:00:00 6.1 3 Noroeste 10 Noroeste 0.6 -- -- 98
2019-02-18 07:00:00 6.2 4 Noroeste 13 Noroeste 0.2 -- -- 98
2019-02-18 06:00:00 6.2 4 Noroeste 9 Noroeste 0.2 -- -- 98
2019-02-18 05:00:00 6.3 4 Noroeste 9 Noroeste 0 -- -- 97
2019-02-18 04:00:00 6.4 3 Noroeste 5 Norte 0.2 -- -- 97
2019-02-18 03:00:00 6.5 0 Calma 6 Noroeste 0.6 -- -- 97
2019-02-18 02:00:00 6.7 2 Noroeste 9 Noroeste 1.8 -- -- 96
2019-02-18 01:00:00 6.7 3 Noroeste 7 Oeste 1.2 -- -- 96
2019-02-18 00:00:00 6.9 3 Noroeste 9 Noroeste 0.8 -- -- 95
2019-02-17 23:00:00 7.2 3 Noroeste 14 Noroeste 1 -- -- 93
2019-02-17 22:00:00 7.7 4 Norte 17 Noroeste 1.6 -- -- 89
2019-02-17 21:00:00 8.9 5 Noroeste 21 Norte 0 -- -- 87
2019-02-17 20:00:00 11.9 0 Calma 13 Oeste 0 -- -- 65
2019-02-17 19:00:00 12.5 8 Oeste 19 Oeste 0 -- -- 61
2019-02-17 18:00:00 13.3 4 Sudoeste 30 Oeste 0 -- -- 57
2019-02-17 17:00:00 13.9 16 Oeste 28 Oeste 0 -- -- 51
2019-02-17 16:00:00 15.2 5 Sudoeste 25 Oeste 0 -- -- 49
2019-02-17 15:00:00 15.7 7 Sudoeste 27 Oeste 0 -- -- 49
2019-02-17 14:00:00 15.8 8 Sudoeste 32 Sur 0 -- -- 49
2019-02-17 13:00:00 14.4 6 Sudoeste 20 Sur 0 -- -- 53
2019-02-17 12:00:00 15.1 6 Sur 16 Sur 0 -- -- 51
2019-02-17 11:00:00 13 5 Sur 12 Sur 0 -- -- 58
2019-02-17 10:00:00 11.1 5 Sudeste 12 Sur 0 -- -- 63
2019-02-17 09:00:00 8.6 4 Sudeste 10 Sudeste 0 -- -- 70
2019-02-17 08:00:00 8.5 4 Este 13 Sudeste 0 -- -- 70
2019-02-17 07:00:00 7.7 4 Sudeste 11 Sudeste 0 -- -- 73
2019-02-17 06:00:00 6.8 4 Sudeste 11 Este 0 -- -- 76
2019-02-17 05:00:00 7 4 Este 10 Sudeste 0 -- -- 74
2019-02-17 04:00:00 7.8 2 Sudeste 5 Oeste 0 -- -- 73
2019-02-17 03:00:00 6.8 4 Sudeste 9 Sur 0 -- -- 77
2019-02-17 02:00:00 6.7 0 Calma 7 Sudeste 0 -- -- 78
2019-02-17 01:00:00 7.2 5 Sudeste 12 Sudeste 0 -- -- 75
2019-02-17 00:00:00 7.7 4 Sudeste 12 Sudeste 0 -- -- 72
2019-02-16 23:00:00 8.6 3 Sudeste 5 Sudeste 0 -- -- 66
2019-02-16 22:00:00 10.4 2 Noroeste 5 Noroeste 0 -- -- 62
2019-02-16 21:00:00 11.7 0 Calma 6 Noroeste 0 -- -- 51
2019-02-16 20:00:00 13.2 0 Calma 5 Oeste 0 -- -- 42
2019-02-16 19:00:00 16.5 3 Oeste 9 Sur 0 -- -- 34
2019-02-16 18:00:00 22 4 Sur 19 Sur 0 -- -- 28
2019-02-16 17:00:00 22.8 5 Sur 15 Sur 0 -- -- 25
2019-02-16 16:00:00 19.2 4 Sudoeste 15 Oeste 0 -- -- 30
2019-02-16 15:00:00 18.4 4 Sur 12 Oeste 0 -- -- 37
2019-02-16 14:00:00 18.7 4 Este 11 Este 0 -- -- 42
2019-02-16 13:00:00 15 5 Sudeste 13 Sudeste 0 -- -- 52
2019-02-16 12:00:00 11 6 Sudeste 11 Sudeste 0 -- -- 65
2019-02-16 11:00:00 6.6 4 Sudeste 9 Sudeste 0 -- -- 81
2019-02-16 10:00:00 3.1 4 Sudeste 9 Sudeste 0 -- -- 93
2019-02-16 09:00:00 0.9 5 Sudeste 11 Sudeste 0 -- -- 96
2019-02-16 08:00:00 0.7 5 Sudeste 13 Sudeste 0 -- -- 95
2019-02-16 07:00:00 0.7 0 Calma 4 Sudeste 0 -- -- 94
2019-02-16 06:00:00 1.3 0 Calma 3 Sudeste 0 -- -- 94
2019-02-16 05:00:00 2.3 4 Sudeste 8 Sudeste 0 -- -- 94
2019-02-16 04:00:00 2.6 3 Sudeste 5 Sudeste 0 -- -- 93
2019-02-16 03:00:00 2.8 0 Calma 2 Noroeste 0 -- -- 90
2019-02-16 02:00:00 3.8 0 Calma 2 Noroeste 0 -- -- 89
2019-02-16 01:00:00 5 0 Calma 6 Noroeste 0 -- -- 87
2019-02-16 00:00:00 6.2 2 Norte 5 Noroeste 0 -- -- 83
2019-02-15 23:00:00 6.8 5 Noroeste 10 Noroeste 0 -- -- 84
2019-02-15 22:00:00 8.4 5 Noroeste 9 Noroeste 0 -- -- 79
2019-02-15 21:00:00 10 4 Noroeste 7 Noroeste 0 -- -- 74
2019-02-15 20:00:00 12.5 0 Calma 4 Nordeste 0 -- -- 63
2019-02-15 19:00:00 15.9 3 Nordeste 6 Nordeste 0 -- -- 46
2019-02-15 18:00:00 17.9 3 Nordeste 6 Este 0 -- -- 38
2019-02-15 17:00:00 20.4 0 Calma 8 Este 0 -- -- 33
2019-02-15 16:00:00 19.1 0 Calma 6 Este 0 -- -- 36
2019-02-15 15:00:00 18.1 3 Este 8 Sur 0 -- -- 38
2019-02-15 14:00:00 18.2 4 Este 9 Este 0 -- -- 40
2019-02-15 13:00:00 16.1 5 Sudeste 11 Sudeste 0 -- -- 45
2019-02-15 12:00:00 12.3 5 Sudeste 12 Este 0 -- -- 54
2019-02-15 11:00:00 8.5 5 Sudeste 10 Sudeste 0 -- -- 64
2019-02-15 10:00:00 4 3 Sudeste 5 Sudeste 0 -- -- 82
2019-02-15 09:00:00 1.3 0 Calma 8 Noroeste 0 -- -- 89
2019-02-15 08:00:00 1.6 2 Sudeste 6 Noroeste 0 -- -- 88
2019-02-15 07:00:00 2.6 3 Sudeste 5 Este 0 -- -- 83
2019-02-15 06:00:00 3.3 2 Este 4 Sudeste 0 -- -- 83
2019-02-15 05:00:00 2.8 0 Calma 5 Este 0 -- -- 84
2019-02-15 04:00:00 3.9 3 Sudeste 5 Sudeste 0 -- -- 81
2019-02-15 03:00:00 4.8 3 Este 7 Este 0 -- -- 79
2019-02-15 02:00:00 5.2 3 Este 7 Este 0 -- -- 80
2019-02-15 01:00:00 5.8 0 Calma 4 Sudeste 0 -- -- 78
2019-02-15 00:00:00 7.3 2 Este 5 Noroeste 0 -- -- 73
2019-02-14 23:00:00 9.3 0 Calma 5 Noroeste 0 -- -- 62
2019-02-14 22:00:00 11.3 2 Este 11 Sudoeste 0 -- -- 53
2019-02-14 21:00:00 13 4 Sur 17 Sur 0 -- -- 47
2019-02-14 20:00:00 14.2 0 Calma 9 Oeste 0 -- -- 44
2019-02-14 19:00:00 16 3 Sudoeste 14 Sur 0 -- -- 39
2019-02-14 18:00:00 21.2 6 Sur 28 Sur 0 -- -- 29
2019-02-14 17:00:00 21.1 10 Sur 26 Sudeste 0 -- -- 30
2019-02-14 16:00:00 18.5 12 Sur 26 Sudeste 0 -- -- 34
2019-02-14 15:00:00 17.7 6 Sudoeste 19 Sur 0 -- -- 37
2019-02-14 14:00:00 18.9 4 Sur 13 Sudeste 0 -- -- 38
2019-02-14 13:00:00 13 3 Noroeste 7 Oeste 0 -- -- 50
2019-02-14 12:00:00 9.8 0 Calma 5 Sudeste 0 -- -- 64
2019-02-14 11:00:00 4.8 4 Sudeste 9 Sudeste 0 -- -- 79
2019-02-14 10:00:00 1.7 2 Sudeste 6 Sudeste 0 -- -- 91
2019-02-14 09:00:00 -0.5 0 Calma 8 Sudeste 0 -- -- 95
2019-02-14 08:00:00 -0.7 5 Sudeste 9 Sudeste 0 -- -- 96
2019-02-14 07:00:00 -0.9 0 Calma 3 Sur 0 -- -- 95
2019-02-14 06:00:00 -0.5 0 Calma 5 Sudeste 0 -- -- 95
2019-02-14 05:00:00 -0.3 0 Calma 2 Noroeste 0 -- -- 93
2019-02-14 04:00:00 0.4 0 Calma 2 Sudeste 0 -- -- 93
2019-02-14 03:00:00 1.2 0 Calma 3 Este 0 -- -- 92
2019-02-14 02:00:00 1.7 0 Calma 2 Sudeste 0 -- -- 90
2019-02-14 01:00:00 2.7 0 Calma 2 Sur 0 -- -- 87
2019-02-14 00:00:00 3.6 0 Calma 3 Noroeste 0 -- -- 83
2019-02-13 23:00:00 5 0 Calma 5 Noroeste 0 -- -- 79
2019-02-13 22:00:00 5.8 2 Noroeste 10 Noroeste 0 -- -- 75
2019-02-13 21:00:00 7.4 4 Noroeste 7 Noroeste 0 -- -- 68
2019-02-13 20:00:00 10.4 2 Noroeste 5 Noroeste 0 -- -- 52
2019-02-13 19:00:00 14.3 0 Calma 6 Sur 0 -- -- 34
2019-02-13 18:00:00 20.6 3 Sudeste 8 Este 0 -- -- 21
2019-02-13 17:00:00 19.8 3 Sudeste 12 Sudeste 0 -- -- 22
2019-02-13 16:00:00 15.4 3 Sudoeste 10 Oeste 0 -- -- 34
2019-02-13 15:00:00 14.8 5 Sur 14 Sudeste 0 -- -- 35
2019-02-13 14:00:00 16.1 6 Este 12 Sudeste 0 -- -- 42
2019-02-13 13:00:00 12.7 5 Sudeste 10 Sudeste 0 -- -- 54
2019-02-13 12:00:00 8.7 5 Sudeste 12 Sudeste 0 -- -- 69
2019-02-13 11:00:00 4.5 6 Sudeste 14 Sudeste 0 -- -- 86
2019-02-13 10:00:00 1.3 5 Sudeste 10 Sudeste 0 -- -- 97
2019-02-13 09:00:00 -0.8 2 Sudeste 9 Sudeste 0 -- -- 98
2019-02-13 08:00:00 -0.8 2 Sudeste 6 Sudeste 0 -- -- 98
2019-02-13 07:00:00 -0.5 0 Calma 7 Sudeste 0 -- -- 97
2019-02-13 06:00:00 -0.3 3 Sudeste 5 Sudeste 0 -- -- 97
2019-02-13 05:00:00 0.2 0 Calma 5 Sudeste 0 -- -- 96
2019-02-13 04:00:00 0.7 0 Calma 6 Sudeste 0 -- -- 95
2019-02-13 03:00:00 1.1 0 Calma 3 Sudeste 0 -- -- 94
2019-02-13 02:00:00 1.7 0 Calma 2 Noroeste 0 -- -- 93
2019-02-13 01:00:00 2.3 0 Calma 2 Noroeste 0 -- -- 92
2019-02-13 00:00:00 3.4 0 Calma 3 Sur 0 -- -- 92
2019-02-12 23:00:00 4.4 2 Sudeste 5 Sudeste 0 -- -- 89
2019-02-12 22:00:00 5.2 0 Calma 2 Noroeste 0 -- -- 85
2019-02-12 21:00:00 7 0 Calma 3 Noroeste 0 -- -- 79
2019-02-12 20:00:00 9.5 0 Calma 3 Sur 0 -- -- 65
2019-02-12 19:00:00 12.3 0 Calma 6 Nordeste 0 -- -- 53
2019-02-12 18:00:00 18.5 2 Nordeste 6 Oeste 0 -- -- 34
2019-02-12 17:00:00 17.2 3 Sudoeste 7 Oeste 0 -- -- 34
2019-02-12 16:00:00 12.9 0 Calma 7 Sudeste 0 -- -- 44
2019-02-12 15:00:00 11.7 3 Sur 10 Sur 0 -- -- 54
2019-02-12 14:00:00 11.7 4 Sudeste 10 Sudeste 0 -- -- 66
2019-02-12 13:00:00 5.8 5 Sudeste 9 Sur 0 -- -- 91
2019-02-12 12:00:00 2.9 2 Sudeste 4 Sur 0 -- -- 97
2019-02-12 11:00:00 0.8 2 Sudeste 6 Sudeste 0 -- -- 99
2019-02-12 10:00:00 -0.1 2 Sudeste 9 Sudeste 0 -- -- 99
2019-02-12 09:00:00 -0.4 4 Sudeste 7 Este 0 -- -- 99
2019-02-12 08:00:00 0.3 0 Calma 4 Sur 0 -- -- 99
2019-02-12 07:00:00 0.7 0 Calma 4 Sudeste 0 -- -- 99
2019-02-12 06:00:00 0.6 0 Calma 3 Noroeste 0 -- -- 99
2019-02-12 05:00:00 1.5 0 Calma 4 Sur 0 -- -- 99
2019-02-12 04:00:00 1.7 2 Sur 6 Sudeste 0 -- -- 99
2019-02-12 03:00:00 1.7 4 Sudeste 9 Sudeste 0 -- -- 98
2019-02-12 02:00:00 1.7 3 Sudeste 5 Sudeste 0 -- -- 97
2019-02-12 01:00:00 2.3 0 Calma 4 Noroeste 0 -- -- 96
2019-02-12 00:00:00 2.9 2 Noroeste 8 Noroeste 0 -- -- 95
2019-02-11 23:00:00 3.7 3 Noroeste 10 Noroeste 0 -- -- 94
2019-02-11 22:00:00 4.7 3 Noroeste 12 Nordeste 0 -- -- 91
2019-02-11 21:00:00 6.1 4 Norte 14 Norte 0 -- -- 86
2019-02-11 20:00:00 7 4 Noroeste 17 Nordeste 0 -- -- 80
2019-02-11 19:00:00 8.7 8 Nordeste 21 Norte 0 -- -- 73
2019-02-11 18:00:00 12 8 Norte 21 Nordeste 0 -- -- 61
2019-02-11 17:00:00 13 9 Norte 21 Norte 0 -- -- 54
2019-02-11 16:00:00 11.4 9 Norte 21 Noroeste 0 -- -- 60
2019-02-11 15:00:00 11.3 8 Norte 18 Norte 0 -- -- 61
2019-02-11 14:00:00 12.1 4 Noroeste 12 Noroeste 0 -- -- 62
2019-02-11 13:00:00 8.7 4 Noroeste 8 Oeste 0 -- -- 75
2019-02-11 12:00:00 5.1 3 Oeste 5 Oeste 0 -- -- 89
2019-02-11 11:00:00 2.4 2 Sudeste 5 Sudeste 0 -- -- 97
2019-02-11 10:00:00 0.8 0 Calma 5 Sudeste 0 -- -- 98
2019-02-11 09:00:00 0.7 3 Sudeste 5 Sudeste 0 -- -- 98
2019-02-11 08:00:00 1.3 0 Calma 4 Noroeste 0 -- -- 98
2019-02-11 07:00:00 1.7 0 Calma 5 Noroeste 0 -- -- 98
2019-02-11 06:00:00 2 0 Calma 5 Noroeste 0 -- -- 96
2019-02-11 05:00:00 2.7 0 Calma 5 Sudeste 0 -- -- 96
2019-02-11 04:00:00 3.2 0 Calma 3 Sudeste 0 -- -- 95
2019-02-11 03:00:00 3.5 0 Calma 7 Oeste 0 -- -- 95
2019-02-11 02:00:00 3.7 0 Calma 4 Noroeste 0 -- -- 95
2019-02-11 01:00:00 3.3 0 Calma 9 Sudeste 0 -- -- 95
2019-02-11 00:00:00 3.1 0 Calma 6 Noroeste 0 -- -- 94
2019-02-10 23:00:00 3.5 2 Noroeste 8 Noroeste 0 -- -- 92
2019-02-10 22:00:00 4.5 0 Calma 5 Noroeste 0 -- -- 88
2019-02-10 21:00:00 5.9 0 Calma 6 Noroeste 0 -- -- 85
2019-02-10 20:00:00 6.2 3 Noroeste 11 Noroeste 0 -- -- 82
2019-02-10 19:00:00 7.9 4 Noroeste 15 Noroeste 0 -- -- 74
2019-02-10 18:00:00 9.9 4 Noroeste 20 Norte 0 -- -- 64
2019-02-10 17:00:00 10 9 Noroeste 20 Noroeste 0 -- -- 65
2019-02-10 16:00:00 9.9 9 Noroeste 25 Noroeste 0 -- -- 69
2019-02-10 15:00:00 10.9 7 Noroeste 19 Noroeste 0 -- -- 66
2019-02-10 14:00:00 10 5 Noroeste 25 Noroeste 0 -- -- 75
2019-02-10 13:00:00 10.9 6 Noroeste 22 Oeste 0 -- -- 75
2019-02-10 12:00:00 10.4 6 Oeste 16 Oeste 0 -- -- 79
2019-02-10 11:00:00 9.6 5 Noroeste 12 Noroeste 0 -- -- 84
2019-02-10 10:00:00 7.5 2 Noroeste 20 Noroeste 0 -- -- 95
2019-02-10 09:00:00 7.7 7 Noroeste 29 Noroeste 2.4 -- -- 97
2019-02-10 08:00:00 8.9 11 Noroeste 26 Noroeste 8.6 -- -- 96
2019-02-10 07:00:00 9.6 5 Sudoeste 19 Sur 1.6 -- -- 96
2019-02-10 06:00:00 9.7 6 Sur 31 Oeste 1.6 -- -- 94
2019-02-10 05:00:00 9.9 6 Sudoeste 19 Oeste 1.2 -- -- 92
2019-02-10 04:00:00 10.1 6 Sudoeste 24 Oeste 0.2 -- -- 89
2019-02-10 03:00:00 10.1 6 Sudoeste 28 Oeste 0 -- -- 90
2019-02-10 02:00:00 9.6 8 Sur 27 Sur 0 -- -- 93
2019-02-10 01:00:00 9.2 10 Sur 38 Sur 0.4 -- -- 94
2019-02-10 00:00:00 9 7 Sur 24 Sur 0.4 -- -- 94
2019-02-09 23:00:00 8.7 8 Sur 25 Sur 0.2 -- -- 92
2019-02-09 22:00:00 8.7 8 Sur 36 Sur 0 -- -- 87
2019-02-09 21:00:00 9.4 9 Sudoeste 32 Sur 0 -- -- 82
2019-02-09 20:00:00 9.9 10 Sudoeste 29 Sur 0 -- -- 77
2019-02-09 19:00:00 10 9 Sur 27 Sur 0 -- -- 77
2019-02-09 18:00:00 10.3 6 Sur 27 Sur 0 -- -- 75
2019-02-09 17:00:00 10.3 10 Sur 30 Sur 0 -- -- 75
2019-02-09 16:00:00 10.1 8 Sudoeste 29 Sur 0 -- -- 80
2019-02-09 15:00:00 10.7 7 Sudoeste 29 Oeste 0 -- -- 77
2019-02-09 14:00:00 11.2 8 Sudoeste 26 Oeste 0 -- -- 77
2019-02-09 13:00:00 11.2 6 Sudoeste 31 Oeste 0 -- -- 76
2019-02-09 12:00:00 11.2 6 Sudoeste 23 Sur 0 -- -- 76
2019-02-09 11:00:00 10.2 5 Sudoeste 20 Sudeste 0 -- -- 80
2019-02-09 10:00:00 9 5 Sur 20 Sur 0 -- -- 82
2019-02-09 09:00:00 8.5 6 Sur 19 Sur 0 -- -- 86
2019-02-09 08:00:00 8.7 7 Sur 22 Sudoeste 0 -- -- 84
2019-02-09 07:00:00 8.7 5 Sur 16 Sur 0 -- -- 86
2019-02-09 06:00:00 8.7 5 Sur 15 Sudeste 0 -- -- 89
2019-02-09 05:00:00 8.8 4 Sur 18 Sur 0 -- -- 87
2019-02-09 04:00:00 8.5 5 Sur 18 Sur 0 -- -- 88
2019-02-09 03:00:00 8.7 5 Sur 17 Sudeste 0 -- -- 88
2019-02-09 02:00:00 8.5 4 Sur 17 Sur 0 -- -- 89
2019-02-09 01:00:00 8.3 5 Sur 15 Sur 0 -- -- 90
2019-02-09 00:00:00 8.4 4 Sur 15 Sudeste 0 -- -- 89
2019-02-08 23:00:00 8.5 5 Sur 16 Sur 0 -- -- 90
2019-02-08 22:00:00 8.6 4 Sur 15 Sur 0 -- -- 90
2019-02-08 21:00:00 8.9 4 Sur 18 Oeste 0 -- -- 89
2019-02-08 20:00:00 9.3 6 Sudoeste 19 Oeste 0 -- -- 86
2019-02-08 19:00:00 9 6 Sudoeste 28 Oeste 0 -- -- 89
2019-02-08 18:00:00 10.3 4 Sudoeste 26 Oeste 0 -- -- 81
2019-02-08 17:00:00 10.2 5 Sudoeste 26 Oeste 0 -- -- 80
2019-02-08 16:00:00 10.1 4 Sudoeste 22 Oeste 0 -- -- 79
2019-02-08 15:00:00 10 9 Sudoeste 28 Oeste 0 -- -- 76
2019-02-08 14:00:00 10.6 7 Sur 24 Sudeste 0 -- -- 70
2019-02-08 13:00:00 10.9 6 Sur 27 Sur 0 -- -- 70
2019-02-08 12:00:00 10 8 Sur 22 Sudeste 0 -- -- 73
2019-02-08 11:00:00 6.2 5 Sur 14 Sur 0 -- -- 92
2019-02-08 10:00:00 4.5 6 Sudeste 13 Sudeste 0 -- -- 96
2019-02-08 09:00:00 4.2 4 Sudeste 14 Sur 0 -- -- 98
2019-02-08 08:00:00 3.3 4 Sudeste 10 Sudeste 0 -- -- 99
2019-02-08 07:00:00 2.8 3 Sudeste 8 Sur 0 -- -- 99
2019-02-08 06:00:00 1.3 4 Sudeste 9 Sur 0 -- -- 98
2019-02-08 05:00:00 0.7 4 Sudeste 7 Sudeste 0 -- -- 97
2019-02-08 04:00:00 1.5 2 Sudeste 5 Este 0 -- -- 98
2019-02-08 03:00:00 2.3 3 Sudeste 7 Sudeste 0 -- -- 97
2019-02-08 02:00:00 3.4 3 Sudeste 6 Sudeste 0 -- -- 96
2019-02-08 01:00:00 3.6 3 Sudeste 6 Sudeste 0 -- -- 94
2019-02-08 00:00:00 4.4 0 Calma 6 Oeste 0 -- -- 93
2019-02-07 23:00:00 4.8 0 Calma 4 Noroeste 0 -- -- 90
2019-02-07 22:00:00 5.8 0 Calma 4 Oeste 0 -- -- 87
2019-02-07 21:00:00 6.6 0 Calma 6 Oeste 0 -- -- 82
2019-02-07 20:00:00 8.2 2 Oeste 10 Noroeste 0 -- -- 77
2019-02-07 19:00:00 9.9 5 Oeste 13 Oeste 0 -- -- 70
2019-02-07 18:00:00 12.3 6 Oeste 13 Noroeste 0 -- -- 61
2019-02-07 17:00:00 13.2 4 Noroeste 17 Oeste 0 -- -- 55
2019-02-07 16:00:00 11.3 6 Oeste 17 Oeste 0 -- -- 58
2019-02-07 15:00:00 10.7 6 Oeste 21 Oeste 0 -- -- 62
2019-02-07 14:00:00 10.9 6 Noroeste 14 Noroeste 0 -- -- 66
2019-02-07 13:00:00 10.4 3 Oeste 14 Oeste 0 -- -- 69
2019-02-07 12:00:00 9.7 4 Noroeste 12 Noroeste 0 -- -- 79
2019-02-07 11:00:00 8 0 Calma 6 Noroeste 0 -- -- 91
2019-02-07 10:00:00 7 2 Noroeste 4 Noroeste 0.2 -- -- 97
2019-02-07 09:00:00 6.3 0 Calma 6 Sudeste 0 -- -- 98
2019-02-07 08:00:00 6.4 3 Sudeste 6 Sudeste 0.2 -- -- 97
2019-02-07 07:00:00 6.5 2 Sudeste 6 Sudeste 0 -- -- 96
2019-02-07 06:00:00 6.3 2 Sudeste 7 Sudeste 0 -- -- 96
2019-02-07 05:00:00 6.3 0 Calma 12 Oeste 0 -- -- 94
2019-02-07 04:00:00 6.6 0 Calma 12 Oeste 0 -- -- 93
2019-02-07 03:00:00 7.6 2 Sur 5 Sur 0.4 -- -- 95
2019-02-07 02:00:00 7.8 2 Oeste 8 Oeste 0.2 -- -- 92
2019-02-07 01:00:00 8.6 3 Sur 10 Sur 0 -- -- 81
2019-02-07 00:00:00 8.8 3 Sur 12 Sudeste 0 -- -- 76
2019-02-06 23:00:00 9.1 3 Sur 13 Sur 0 -- -- 73
2019-02-06 22:00:00 9.6 5 Sudoeste 17 Oeste 0 -- -- 72
2019-02-06 21:00:00 10 4 Sudoeste 16 Oeste 0 -- -- 68
2019-02-06 20:00:00 10.2 2 Sudoeste 14 Oeste 0 -- -- 73
2019-02-06 19:00:00 10.6 4 Oeste 15 Oeste 0 -- -- 71
2019-02-06 18:00:00 11.5 6 Oeste 19 Oeste 0 -- -- 69
2019-02-06 17:00:00 12.3 7 Oeste 22 Oeste 0 -- -- 61
2019-02-06 16:00:00 13.7 7 Oeste 26 Oeste 0 -- -- 52
2019-02-06 15:00:00 13.6 10 Oeste 21 Oeste 0 -- -- 52
2019-02-06 14:00:00 13.6 3 Sudoeste 24 Oeste 0 -- -- 63
2019-02-06 13:00:00 12.1 5 Sur 15 Sudeste 0 -- -- 69
2019-02-06 12:00:00 9 5 Sudeste 10 Sudeste 0 -- -- 88
2019-02-06 11:00:00 6.4 3 Sudeste 6 Sudeste 0 -- -- 97
2019-02-06 10:00:00 5.5 0 Calma 8 Sudeste 0 -- -- 98
2019-02-06 09:00:00 5.5 3 Sur 6 Sur 0 -- -- 97
2019-02-06 08:00:00 6 3 Sudeste 10 Sudeste 0 -- -- 97
2019-02-06 07:00:00 6.7 4 Sudeste 11 Sudeste 0 -- -- 96
2019-02-06 06:00:00 7.1 4 Sudeste 9 Sudeste 0 -- -- 96
2019-02-06 05:00:00 7.2 2 Sudeste 6 Sudeste 0 -- -- 95
2019-02-06 04:00:00 7.1 3 Sudeste 7 Este 0 -- -- 95
2019-02-06 03:00:00 7 0 Calma 3 Oeste 0 -- -- 95
2019-02-06 02:00:00 7.4 0 Calma 4 Sudeste 0 -- -- 95
2019-02-06 01:00:00 7 0 Calma 3 Sur 0 -- -- 95
2019-02-06 00:00:00 6.7 0 Calma 4 Sur 0 -- -- 94
2019-02-05 23:00:00 6.9 0 Calma 4 Oeste 0 -- -- 94
2019-02-05 22:00:00 7.9 0 Calma 5 Noroeste 0 -- -- 92
2019-02-05 21:00:00 8.9 4 Noroeste 9 Noroeste 0 -- -- 90
2019-02-05 20:00:00 9.9 2 Oeste 9 Noroeste 0 -- -- 86
2019-02-05 19:00:00 11.8 2 Oeste 9 Sur 0 -- -- 75
2019-02-05 18:00:00 15.7 0 Calma 5 Sur 0 -- -- 60
2019-02-05 17:00:00 13.8 2 Sudoeste 13 Sur 0 -- -- 68
2019-02-05 16:00:00 14.1 3 Sudoeste 11 Oeste 0 -- -- 66
2019-02-05 15:00:00 13.4 4 Sur 13 Sur 0 -- -- 69
2019-02-05 14:00:00 12.4 4 Sur 13 Sudeste 0 -- -- 71
2019-02-05 13:00:00 10.9 7 Sudeste 14 Sudeste 0 -- -- 76
2019-02-05 12:00:00 10 4 Sudeste 9 Sudeste 0 -- -- 79
2019-02-05 11:00:00 8.8 3 Sur 9 Sur 0 -- -- 83
2019-02-05 10:00:00 7.7 0 Calma 4 Este 0 -- -- 88
2019-02-05 09:00:00 7.3 2 Sudeste 8 Sur 0 -- -- 89
2019-02-05 08:00:00 7.3 0 Calma 4 Este 0 -- -- 89
2019-02-05 07:00:00 7.3 0 Calma 4 Sudeste 0 -- -- 89
2019-02-05 06:00:00 7.1 2 Sudeste 8 Sudeste 0 -- -- 89
2019-02-05 05:00:00 7.3 3 Sudeste 8 Sudeste 0 -- -- 88
2019-02-05 04:00:00 7.3 3 Sudeste 7 Sudeste 0 -- -- 88
2019-02-05 03:00:00 7.4 5 Sudeste 10 Sudeste 0 -- -- 90
2019-02-05 02:00:00 7.4 2 Sudeste 6 Sudeste 0 -- -- 87
2019-02-05 01:00:00 7.8 2 Sudeste 6 Este 0 -- -- 85
2019-02-05 00:00:00 7.8 2 Este 8 Este 0 -- -- 86
2019-02-04 23:00:00 8.2 2 Sudeste 5 Sur 0 -- -- 86
2019-02-04 22:00:00 8.2 3 Sur 6 Sur 0 -- -- 82
2019-02-04 21:00:00 8.2 2 Sudeste 5 Este 0 -- -- 80
2019-02-04 20:00:00 8.4 0 Calma 8 Sur 0 -- -- 80
2019-02-04 19:00:00 8.6 0 Calma 8 Sudeste 0 -- -- 75
2019-02-04 18:00:00 8.8 4 Sudeste 12 Sudeste 0 -- -- 70
2019-02-04 17:00:00 8.8 5 Sudeste 16 Sudeste 0 -- -- 68
2019-02-04 16:00:00 8.7 8 Sudeste 15 Sudeste 0 -- -- 62
2019-02-04 15:00:00 8.5 5 Sur 13 Sudeste 0 -- -- 65
2019-02-04 14:00:00 8 4 Sur 9 Sudeste 0 -- -- 65
2019-02-04 13:00:00 7.6 4 Sudeste 13 Sudeste 0 -- -- 67
2019-02-04 12:00:00 6.8 4 Sudeste 10 Sudeste 0 -- -- 67
2019-02-04 11:00:00 4.9 3 Sudeste 12 Sudeste 0 -- -- 75
2019-02-04 10:00:00 2.8 5 Sudeste 13 Sudeste 0 -- -- 84
2019-02-04 09:00:00 1.7 6 Sudeste 13 Sudeste 0 -- -- 89
2019-02-04 08:00:00 1.1 6 Sudeste 12 Sudeste 0 -- -- 92
2019-02-04 07:00:00 1.1 4 Sudeste 12 Sudeste 0 -- -- 92
2019-02-04 06:00:00 0.9 6 Sudeste 13 Sudeste 0 -- -- 93
2019-02-04 05:00:00 0.8 5 Sudeste 13 Sudeste 0 -- -- 95
2019-02-04 04:00:00 0.4 5 Sudeste 12 Sudeste 0 -- -- 95
2019-02-04 03:00:00 0.3 4 Sudeste 9 Sudeste 0 -- -- 96
2019-02-04 02:00:00 0.9 5 Sudeste 9 Sudeste 0 -- -- 95
2019-02-04 01:00:00 1.3 2 Sudeste 13 Sudeste 0 -- -- 93
2019-02-04 00:00:00 2.2 5 Sudeste 10 Sudeste 0 -- -- 92
2019-02-03 23:00:00 2.8 4 Sudeste 10 Este 0 -- -- 90
2019-02-03 22:00:00 2.8 4 Sudeste 8 Sudeste 0 -- -- 90
2019-02-03 21:00:00 2.8 4 Sudeste 7 Este 0 -- -- 90
2019-02-03 20:00:00 3.5 3 Sudeste 8 Sudeste 0 -- -- 88
2019-02-03 19:00:00 4.5 2 Sudeste 7 Sudeste 0 -- -- 81
2019-02-03 18:00:00 7.1 2 Sur 9 Sudeste 0 -- -- 67
2019-02-03 17:00:00 8 3 Sudeste 12 Sur 0 -- -- 64
2019-02-03 16:00:00 5.6 4 Sur 9 Este 0 -- -- 78
2019-02-03 15:00:00 4.7 3 Este 8 Sudeste 0 -- -- 93
2019-02-03 14:00:00 3.6 3 Sudeste 9 Este 0 -- -- 98
2019-02-03 13:00:00 2 4 Sudeste 9 Sudeste 0 -- -- 99
2019-02-03 12:00:00 1 3 Sur 7 Sur 0 -- -- 99
2019-02-03 11:00:00 0.3 4 Sudeste 11 Sudeste 0 -- -- 100
2019-02-03 10:00:00 -0.2 3 Nordeste 10 Nordeste 0 -- -- 100
2019-02-03 09:00:00 -0.6 2 Nordeste 5 Nordeste 0 -- -- 100
2019-02-03 08:00:00 -0.8 0 Calma 4 Nordeste 0 -- -- 100
2019-02-03 07:00:00 -1.1 0 Calma 10 Nordeste 0 -- -- 100
2019-02-03 06:00:00 -1.2 3 Nordeste 5 Nordeste 0 -- -- 99
2019-02-03 05:00:00 -1.2 0 Calma 4 Nordeste 0 -- -- 99
2019-02-03 04:00:00 -0.7 2 Nordeste 8 Nordeste 0 -- -- 99
2019-02-03 03:00:00 -0.3 0 Calma 16 Sudeste 0 -- -- 98
2019-02-03 02:00:00 -0.1 0 Calma 8 Noroeste 0 -- -- 98
2019-02-03 01:00:00 0.4 2 Noroeste 6 Noroeste 0 -- -- 97
2019-02-03 00:00:00 1.2 2 Noroeste 8 Noroeste 0 -- -- 96
2019-02-02 23:00:00 2.4 0 Calma 12 Nordeste 0 -- -- 94
2019-02-02 22:00:00 3.2 4 Norte 10 Nordeste 0.2 -- -- 94
2019-02-02 21:00:00 3.1 3 Noroeste 10 Noroeste 0.4 -- -- 93
2019-02-02 20:00:00 3 0 Calma 13 Noroeste 0 -- -- 93
2019-02-02 19:00:00 3.3 6 Noroeste 16 Norte 0 -- -- 90
2019-02-02 18:00:00 5 9 Noroeste 21 Noroeste 0 -- -- 83
2019-02-02 17:00:00 4.9 7 Noroeste 30 Norte 1 -- -- 88
2019-02-02 16:00:00 6.7 7 Noroeste 18 Noroeste 0 -- -- 77
2019-02-02 15:00:00 4.7 8 Noroeste 26 Noroeste 0 -- -- 87
2019-02-02 14:00:00 6.2 12 Noroeste 27 Noroeste 0 -- -- 72
2019-02-02 13:00:00 7.3 3 Noroeste 15 Nordeste 0.2 -- -- 72
2019-02-02 12:00:00 5.2 4 Noroeste 13 Norte 1 -- -- 84
2019-02-02 11:00:00 3.5 0 Calma 11 Noroeste 1 -- -- 92
2019-02-02 10:00:00 1.2 2 Norte 15 Noroeste 0.8 -- -- 98
2019-02-02 09:00:00 1.2 2 Noroeste 10 Norte 0.2 -- -- 98
2019-02-02 08:00:00 1 5 Noroeste 17 Noroeste 1 -- -- 98
2019-02-02 07:00:00 0.7 3 Noroeste 10 Noroeste 0.2 -- -- 99
2019-02-02 06:00:00 0.5 3 Noroeste 19 Noroeste 0.4 -- -- 97
2019-02-02 05:00:00 1.7 6 Noroeste 14 Noroeste 0.4 -- -- 96
2019-02-02 04:00:00 1.9 8 Noroeste 21 Noroeste 0.2 -- -- 95
2019-02-02 03:00:00 2 9 Noroeste 19 Noroeste 0 -- -- 94
2019-02-02 02:00:00 2 6 Noroeste 24 Norte 0.2 -- -- 94
2019-02-02 01:00:00 2.2 3 Noroeste 14 Noroeste 0 -- -- 95
2019-02-02 00:00:00 3 8 Noroeste 44 Oeste 0.4 -- -- 92
2019-02-01 23:00:00 3.1 7 Noroeste 31 Noroeste 0.2 -- -- 95
2019-02-01 22:00:00 3.3 13 Noroeste 33 Noroeste 1.4 -- -- 92
2019-02-01 21:00:00 4.4 12 Noroeste 32 Oeste 0 -- -- 88
2019-02-01 20:00:00 4.8 10 Noroeste 32 Noroeste 0 -- -- 90
2019-02-01 19:00:00 5 10 Noroeste 29 Noroeste 0.2 -- -- 91
2019-02-01 18:00:00 5.3 12 Noroeste 35 Oeste 0.6 -- -- 92
2019-02-01 17:00:00 5 9 Noroeste 23 Noroeste 0.4 -- -- 95
2019-02-01 16:00:00 4.4 6 Oeste 21 Oeste 0.2 -- -- 95
2019-02-01 15:00:00 2.3 7 Oeste 30 Noroeste 4 -- -- 96
2019-02-01 14:00:00 3.7 10 Oeste 31 Oeste 1.6 -- -- 95
2019-02-01 13:00:00 3.1 3 Oeste 16 Noroeste 2 -- -- 95
2019-02-01 12:00:00 0.8 7 Oeste 36 Oeste 3.2 -- -- 97
2019-02-01 11:00:00 4.1 12 Oeste 37 Oeste 0.6 -- -- 87
2019-02-01 10:00:00 5 7 Oeste 37 Oeste 0 -- -- 85
2019-02-01 09:00:00 4.7 13 Oeste 28 Oeste 0 -- -- 87
2019-02-01 08:00:00 3.6 5 Sudoeste 16 Sur 0.8 -- -- 94
2019-02-01 07:00:00 3.7 6 Oeste 27 Oeste 0 -- -- 85
2019-02-01 06:00:00 3.9 12 Oeste 42 Oeste 0.2 -- -- 86
2019-02-01 05:00:00 3.3 19 Oeste 56 Oeste 3 -- -- 90
2019-02-01 04:00:00 4.9 9 Sudoeste 33 Oeste 0.8 -- -- 90
2019-02-01 03:00:00 5 6 Sudoeste 45 Oeste 0.6 -- -- 91
2019-02-01 02:00:00 5.4 5 Sudoeste 27 Sudoeste 0.2 -- -- 90
2019-02-01 01:00:00 5.3 10 Oeste 34 Sudoeste 0.4 -- -- 89
2019-02-01 00:00:00 6.3 8 Sudoeste 39 Sudoeste 0.2 -- -- 88
2019-01-31 23:00:00 6.7 17 Oeste 40 Oeste 0.2 -- -- 88
2019-01-31 22:00:00 6.6 13 Oeste 38 Oeste 1 -- -- 90
2019-01-31 21:00:00 7.4 5 Sudoeste 33 Oeste 0 -- -- 85
2019-01-31 20:00:00 8.2 5 Sudoeste 35 Sudoeste 0 -- -- 82
2019-01-31 19:00:00 8.9 15 Oeste 32 Oeste 0 -- -- 84
2019-01-31 18:00:00 9.2 7 Oeste 31 Oeste 0 -- -- 85
2019-01-31 17:00:00 9.9 12 Oeste 48 Oeste 0 -- -- 85
2019-01-31 16:00:00 10.6 15 Oeste 40 Oeste 0.4 -- -- 91
2019-01-31 15:00:00 11.5 15 Oeste 42 Sudoeste 2.6 -- -- 93
2019-01-31 14:00:00 12.1 17 Oeste 52 Oeste 0.2 -- -- 92
2019-01-31 13:00:00 12 16 Oeste 35 Oeste 0 -- -- 92
2019-01-31 12:00:00 12.1 15 Oeste 33 Oeste 0.4 -- -- 92
2019-01-31 11:00:00 11.7 14 Oeste 35 Sudoeste 0.4 -- -- 93
2019-01-31 10:00:00 11.3 13 Oeste 31 Oeste 0.4 -- -- 95
2019-01-31 09:00:00 11.2 10 Sudoeste 28 Oeste 0 -- -- 95
2019-01-31 08:00:00 11.1 10 Oeste 28 Oeste 0.2 -- -- 96
2019-01-31 07:00:00 11.1 10 Oeste 28 Sudoeste 0.4 -- -- 96
2019-01-31 06:00:00 11.1 14 Oeste 36 Oeste 0.4 -- -- 95
2019-01-31 05:00:00 11.1 11 Oeste 28 Oeste 1 -- -- 95
2019-01-31 04:00:00 11 12 Oeste 26 Oeste 2 -- -- 95
2019-01-31 03:00:00 11 11 Oeste 28 Oeste 1.4 -- -- 95
2019-01-31 02:00:00 10.9 9 Oeste 28 Sudoeste 0.8 -- -- 96
2019-01-31 01:00:00 10.9 9 Oeste 31 Oeste 1 -- -- 96
2019-01-31 00:00:00 11 12 Oeste 30 Oeste 0.6 -- -- 96
2019-01-30 23:00:00 10.9 12 Oeste 23 Sudoeste 0.8 -- -- 96
2019-01-30 22:00:00 8.9 2 Sudeste 12 Sur 1.4 -- -- 97
2019-01-30 21:00:00 8.8 3 Sudeste 11 Sudoeste 2.4 -- -- 96
2019-01-30 20:00:00 9.3 3 Sudoeste 31 Sudoeste 0.6 -- -- 94
2019-01-30 19:00:00 8.5 4 Sudoeste 11 Sudoeste 1 -- -- 99
2019-01-30 18:00:00 7.7 4 Sudoeste 24 Sur 1.4 -- -- 97
2019-01-30 17:00:00 7.7 7 Sur 31 Sur 0.2 -- -- 95
2019-01-30 16:00:00 7.2 8 Sur 27 Sur 0.4 -- -- 96
2019-01-30 15:00:00 6.3 6 Sur 21 Sudeste 0.4 -- -- 95
2019-01-30 14:00:00 6.1 8 Sur 22 Sur 0.6 -- -- 94
2019-01-30 13:00:00 5.9 8 Sur 18 Sur 0.2 -- -- 93
2019-01-30 12:00:00 5.3 5 Sur 15 Sudeste 0 -- -- 94
2019-01-30 11:00:00 4.3 5 Sur 16 Sudeste 0.2 -- -- 94
2019-01-30 10:00:00 3.6 6 Sur 18 Sur 0 -- -- 94
2019-01-30 09:00:00 2.2 2 Sudeste 8 Sudeste 0 -- -- 98
2019-01-30 08:00:00 2.1 4 Sudeste 9 Sudeste 0 -- -- 98
2019-01-30 07:00:00 2.3 5 Sudeste 10 Sudeste 0 -- -- 98
2019-01-30 06:00:00 2.3 2 Sudeste 6 Sur 0 -- -- 97
2019-01-30 05:00:00 2.9 3 Sudeste 8 Sudeste 0 -- -- 96
2019-01-30 04:00:00 3.1 3 Sudeste 8 Este 0 -- -- 95
2019-01-30 03:00:00 3.4 2 Oeste 5 Oeste 0 -- -- 94
2019-01-30 02:00:00 3.6 0 Calma 7 Oeste 0 -- -- 92
2019-01-30 01:00:00 3.9 3 Oeste 11 Oeste 0 -- -- 93
2019-01-30 00:00:00 4.2 4 Noroeste 10 Oeste 0 -- -- 93
2019-01-29 23:00:00 4.1 3 Noroeste 9 Noroeste 0 -- -- 93
2019-01-29 22:00:00 4.6 3 Oeste 9 Oeste 0 -- -- 94
2019-01-29 21:00:00 4.7 2 Noroeste 8 Oeste 0 -- -- 94
2019-01-29 20:00:00 5.2 4 Noroeste 15 Noroeste 0.4 -- -- 94
2019-01-29 19:00:00 5.5 6 Noroeste 25 Noroeste 0.8 -- -- 92
2019-01-29 18:00:00 6.6 8 Noroeste 29 Oeste 0.2 -- -- 87
2019-01-29 17:00:00 7.8 7 Noroeste 26 Noroeste 0 -- -- 82
2019-01-29 16:00:00 7.5 10 Noroeste 32 Noroeste 0.2 -- -- 85
2019-01-29 15:00:00 8 15 Noroeste 37 Noroeste 0.2 -- -- 85
2019-01-29 14:00:00 9.6 12 Noroeste 46 Noroeste 0 -- -- 81
2019-01-29 13:00:00 8.8 23 Noroeste 50 Noroeste 1 -- -- 92
2019-01-29 12:00:00 9.2 17 Oeste 40 Oeste 3 -- -- 94
2019-01-29 11:00:00 8.7 15 Oeste 39 Oeste 0.4 -- -- 92
2019-01-29 10:00:00 8.2 16 Oeste 36 Oeste 0.2 -- -- 91
2019-01-29 09:00:00 7.8 9 Oeste 24 Oeste 0 -- -- 95
2019-01-29 08:00:00 7.5 10 Oeste 26 Oeste 0.2 -- -- 96
2019-01-29 07:00:00 6.3 2 Sur 10 Sur 0.2 -- -- 97
2019-01-29 06:00:00 6.3 5 Sur 18 Sur 0 -- -- 95
2019-01-29 05:00:00 6.8 3 Sudoeste 14 Oeste 0 -- -- 92
2019-01-29 04:00:00 6.9 4 Sudoeste 19 Oeste 0 -- -- 91
2019-01-29 03:00:00 6.7 2 Sudoeste 10 Oeste 0 -- -- 91
2019-01-29 02:00:00 6.2 0 Calma 5 Sudeste 0 -- -- 94
2019-01-29 01:00:00 6 2 Sudeste 3 Sudeste 0 -- -- 94
2019-01-29 00:00:00 5.8 0 Calma 5 Sudeste 0 -- -- 93
2019-01-28 23:00:00 5.8 0 Calma 5 Oeste 0 -- -- 93
2019-01-28 22:00:00 6 0 Calma 5 Oeste 0 -- -- 92
2019-01-28 21:00:00 6.1 2 Noroeste 6 Oeste 0 -- -- 91
2019-01-28 20:00:00 6.2 2 Oeste 6 Oeste 0 -- -- 90
2019-01-28 19:00:00 7.3 2 Noroeste 16 Noroeste 0 -- -- 84
2019-01-28 18:00:00 9 8 Noroeste 21 Noroeste 0 -- -- 75
2019-01-28 17:00:00 9.6 6 Noroeste 19 Noroeste 0 -- -- 72
2019-01-28 16:00:00 9.5 8 Noroeste 19 Noroeste 0 -- -- 77
2019-01-28 15:00:00 9.6 6 Noroeste 30 Noroeste 0 -- -- 75
2019-01-28 14:00:00 9.8 9 Noroeste 28 Oeste 0 -- -- 79
2019-01-28 13:00:00 9 6 Noroeste 19 Noroeste 0 -- -- 91
2019-01-28 12:00:00 8.6 9 Noroeste 21 Noroeste 0.2 -- -- 94
2019-01-28 11:00:00 8.3 7 Norte 17 Norte 0.6 -- -- 97
2019-01-28 10:00:00 7.9 8 Noroeste 18 Noroeste 0.4 -- -- 98
2019-01-28 09:00:00 7.5 2 Nordeste 11 Noroeste 1.2 -- -- 99
2019-01-28 08:00:00 7.4 4 Oeste 10 Oeste 0 -- -- 99
2019-01-28 07:00:00 6.8 4 Noroeste 12 Noroeste 0.2 -- -- 99
2019-01-28 06:00:00 6.7 3 Oeste 11 Oeste 0.4 -- -- 99
2019-01-28 05:00:00 6.6 2 Oeste 10 Oeste 0.4 -- -- 98
2019-01-28 04:00:00 6.4 3 Sudoeste 9 Oeste 0.2 -- -- 98
2019-01-28 03:00:00 6.1 4 Oeste 14 Noroeste 0.4 -- -- 98
2019-01-28 02:00:00 6 4 Oeste 13 Sudoeste 0 -- -- 97
2019-01-28 01:00:00 5.9 4 Oeste 16 Oeste 0.2 -- -- 96
2019-01-28 00:00:00 5.9 6 Oeste 13 Oeste 0 -- -- 95
2019-01-27 23:00:00 6 2 Oeste 7 Oeste 0 -- -- 91
2019-01-27 22:00:00 6.1 0 Calma 8 Sudoeste 0 -- -- 88
2019-01-27 21:00:00 6.2 2 Oeste 10 Oeste 0 -- -- 85
2019-01-27 20:00:00 6.5 5 Noroeste 13 Noroeste 0 -- -- 82
2019-01-27 19:00:00 7.1 3 Noroeste 18 Noroeste 0 -- -- 78
2019-01-27 18:00:00 8.1 9 Noroeste 24 Noroeste 0 -- -- 73
2019-01-27 17:00:00 8.7 8 Noroeste 24 Noroeste 0 -- -- 65
2019-01-27 16:00:00 9 7 Noroeste 33 Noroeste 0 -- -- 69
2019-01-27 15:00:00 7.9 9 Noroeste 24 Norte 0.2 -- -- 83
2019-01-27 14:00:00 9.1 8 Noroeste 25 Noroeste 0.2 -- -- 76
2019-01-27 13:00:00 7.8 7 Noroeste 17 Noroeste 0.6 -- -- 89
2019-01-27 12:00:00 6.6 4 Noroeste 19 Noroeste 0.2 -- -- 94
2019-01-27 11:00:00 5.2 0 Calma 5 Sudeste 0.6 -- -- 97
2019-01-27 10:00:00 4.5 0 Calma 4 Sudeste 0 -- -- 97
2019-01-27 09:00:00 4.5 0 Calma 10 Noroeste 0.2 -- -- 96
2019-01-27 08:00:00 3.9 0 Calma 6 Oeste 0 -- -- 96
2019-01-27 07:00:00 4.5 3 Noroeste 16 Noroeste 0.2 -- -- 94
2019-01-27 06:00:00 5 2 Oeste 13 Noroeste 0 -- -- 95
2019-01-27 05:00:00 5.8 4 Noroeste 11 Noroeste 0.6 -- -- 95
2019-01-27 04:00:00 6.1 4 Noroeste 19 Noroeste 0 -- -- 93
2019-01-27 03:00:00 6.4 6 Noroeste 20 Noroeste 0 -- -- 96
2019-01-27 02:00:00 6.4 8 Noroeste 25 Noroeste 0.6 -- -- 96
2019-01-27 01:00:00 7.2 5 Oeste 14 Oeste 0.2 -- -- 97
2019-01-27 00:00:00 7.2 6 Sudoeste 26 Oeste 0 -- -- 96
2019-01-26 23:00:00 7.6 7 Oeste 19 Oeste 0 -- -- 93
2019-01-26 22:00:00 7.7 3 Norte 9 Oeste 0 -- -- 91
2019-01-26 21:00:00 7.2 3 Oeste 10 Oeste 0 -- -- 92
2019-01-26 20:00:00 7.1 3 Oeste 6 Oeste 0 -- -- 92
2019-01-26 19:00:00 8.1 0 Calma 4 Noroeste 0 -- -- 88
2019-01-26 18:00:00 12.6 3 Oeste 5 Oeste 0 -- -- 72
2019-01-26 17:00:00 10.5 0 Calma 4 Sur 0 -- -- 83
2019-01-26 16:00:00 9.1 2 Nordeste 6 Norte 0 -- -- 87
2019-01-26 15:00:00 7.3 2 Sudeste 14 Sudeste 0 -- -- 95
2019-01-26 14:00:00 6 7 Sudeste 15 Sudeste 0 -- -- 97
2019-01-26 13:00:00 4.4 7 Sudeste 15 Sudeste 0 -- -- 98
2019-01-26 12:00:00 3.3 7 Sudeste 17 Sudeste 0 -- -- 100
2019-01-26 11:00:00 3 5 Sudeste 11 Sudeste 0.2 -- -- 100
2019-01-26 10:00:00 2.7 0 Calma 8 Sudeste 0 -- -- 100
2019-01-26 09:00:00 2.9 3 Sur 6 Sudeste 0 -- -- 100
2019-01-26 08:00:00 2.4 0 Calma 3 Noroeste 0 -- -- 99
2019-01-26 07:00:00 2.3 0 Calma 4 Noroeste 0 -- -- 99
2019-01-26 06:00:00 2.3 0 Calma 6 Sur 0 -- -- 99
2019-01-26 05:00:00 2.4 3 Sudeste 6 Sudeste 0 -- -- 99
2019-01-26 04:00:00 2.5 2 Sudeste 5 Sudeste 0 -- -- 99
2019-01-26 03:00:00 1.9 3 Sudeste 5 Sudeste 0 -- -- 98
2019-01-26 02:00:00 3.1 2 Noroeste 7 Noroeste 0 -- -- 98
2019-01-26 01:00:00 3.9 2 Noroeste 5 Noroeste 0 -- -- 96
2019-01-26 00:00:00 4.6 0 Calma 4 Noroeste 0 -- -- 95
2019-01-25 23:00:00 5.9 0 Calma 15 Norte 0 -- -- 89
2019-01-25 22:00:00 6.6 5 Norte 13 Norte 0 -- -- 89
2019-01-25 21:00:00 7.4 6 Nordeste 18 Norte 0 -- -- 85
2019-01-25 20:00:00 8 7 Norte 15 Norte 0 -- -- 85
2019-01-25 19:00:00 8.4 6 Norte 22 Norte 0 -- -- 88
2019-01-25 18:00:00 9.6 6 Nordeste 22 Nordeste 0 -- -- 79
2019-01-25 17:00:00 10.2 7 Nordeste 18 Nordeste 0 -- -- 76
2019-01-25 16:00:00 10.1 7 Nordeste 17 Norte 0 -- -- 78
2019-01-25 15:00:00 9.4 9 Nordeste 21 Nordeste 0 -- -- 87
2019-01-25 14:00:00 10.2 8 Nordeste 17 Este 0 -- -- 84
2019-01-25 13:00:00 9.6 6 Nordeste 15 Nordeste 0 -- -- 85
2019-01-25 12:00:00 9.1 6 Nordeste 15 Norte 0 -- -- 90
2019-01-25 11:00:00 8.1 7 Nordeste 15 Nordeste 0 -- -- 95
2019-01-25 10:00:00 8 2 Norte 10 Noroeste 0 -- -- 95
2019-01-25 09:00:00 7.6 2 Nordeste 12 Nordeste 0 -- -- 96
2019-01-25 08:00:00 7.7 4 Nordeste 14 Nordeste 0 -- -- 97
2019-01-25 07:00:00 7.9 5 Norte 12 Norte 0.2 -- -- 98
2019-01-25 06:00:00 7.8 4 Nordeste 8 Nordeste 0.2 -- -- 98
2019-01-25 05:00:00 7.7 3 Norte 9 Norte 0 -- -- 97
2019-01-25 04:00:00 7.9 3 Nordeste 12 Nordeste 0 -- -- 95
2019-01-25 03:00:00 8.3 3 Norte 10 Norte 0 -- -- 96
2019-01-25 02:00:00 8.4 4 Norte 13 Norte 0 -- -- 97
2019-01-25 01:00:00 8.4 3 Norte 12 Nordeste 0 -- -- 97
2019-01-25 00:00:00 8.6 4 Noroeste 13 Noroeste 0 -- -- 97
2019-01-24 23:00:00 8.7 3 Norte 14 Norte 0.2 -- -- 97
2019-01-24 22:00:00 8.8 4 Norte 15 Noroeste 0.2 -- -- 97
2019-01-24 21:00:00 9 6 Norte 18 Norte 0 -- -- 95
2019-01-24 20:00:00 9.4 7 Nordeste 21 Norte 0.4 -- -- 94
2019-01-24 19:00:00 9.9 6 Norte 25 Norte 0 -- -- 92
2019-01-24 18:00:00 10.5 9 Norte 19 Norte 0 -- -- 90
2019-01-24 17:00:00 10.8 5 Norte 12 Norte 0 -- -- 92
2019-01-24 16:00:00 11 5 Nordeste 22 Noroeste 0 -- -- 89
2019-01-24 15:00:00 10.5 11 Norte 28 Norte 0 -- -- 92
2019-01-24 14:00:00 10.9 8 Norte 26 Norte 0.2 -- -- 93
2019-01-24 13:00:00 11.1 6 Noroeste 17 Noroeste 0 -- -- 92
2019-01-24 12:00:00 10.8 4 Norte 23 Noroeste 0 -- -- 91
2019-01-24 11:00:00 9.7 8 Noroeste 19 Noroeste 0 -- -- 96
2019-01-24 10:00:00 9.5 5 Noroeste 20 Noroeste 0 -- -- 96
2019-01-24 09:00:00 9.5 7 Noroeste 22 Noroeste 0 -- -- 96
2019-01-24 08:00:00 9.5 8 Noroeste 24 Norte 0 -- -- 96
2019-01-24 07:00:00 9.6 9 Noroeste 22 Noroeste 0 -- -- 97
2019-01-24 06:00:00 9.7 8 Noroeste 21 Noroeste 0 -- -- 96
2019-01-24 05:00:00 9.7 9 Noroeste 22 Noroeste 0 -- -- 97
2019-01-24 04:00:00 9.7 6 Noroeste 21 Noroeste 0 -- -- 97
2019-01-24 03:00:00 9.6 6 Noroeste 17 Noroeste 0 -- -- 98
2019-01-24 02:00:00 9.5 5 Noroeste 13 Noroeste 0 -- -- 97
2019-01-24 01:00:00 9.4 4 Noroeste 17 Noroeste 0.2 -- -- 97
2019-01-24 00:00:00 9.5 6 Noroeste 20 Norte 0 -- -- 96